Airfield :
LOGIN :

Register | Disclaimer

   EN    FR    IT 

 










Legend :    VFR   Marginal VFR   IFR   Intensive IFR   Very Intensive IFR
Visi :
Ceiling :
>= 8 km
>= 3000ft
5 to 8 km
1000 to 3000 ft
1500m to 5 km
500 to 1000 ft
800 to 1500m
200 to 500 ft
< 800m
< 200 ft
Symbols :   Thunderstorms  Fog  Heavy snow  Heavy precipitations  Wind > 20 kt
SIGMETs :     Misc.  Thunderstorms  Icing  Turbulence  Mountain Waves  Volcanic Ashes







- Airport Elevation : 909 ft
- IATA code : KSF


EDVK - Kassel Calden

CURRENT METAR :
  • 221220Z 33011KT 9999 VCSH FEW020 SCT030CB 13/10 Q1022 RESHRA

EXPIRED METARs :
  • 221150Z 31016KT 9999 -RA SCT025TCU SCT040 BKN051 13/08 Q1022
  • 221120Z 30018KT 9999 VCSH FEW024 SCT037TCU BKN066 13/07 Q1021
  • 221050Z 30016KT 9999 SCT018 SCT028 BKN061 13/09 Q1021
  • 221020Z 30015KT 9999 FEW015 SCT019 BKN045 12/09 Q1021
  • 220950Z 30017KT 9999 -RA FEW014 BKN018 BKN025 11/10 Q1021

TAF TAF EDVK
Valid from the 22 at 12:00 until the 22 at 21:00 UTC


221100Z 2212/2221 29015G25KT 9999 SCT030
TEMPO 2212/2215 30020G30KT SHRA BKN020CB
BECMG 2216/2218 29009KT
No reported NOTAMs for that airfield.



MET'MAP, your aeronautical weather chart ! - Copyright ORBIFLY December 2007 - Disclaimer

ORBIFLY MET'MAP TEAM :

Programming & Development : Alexandra Zaïnal
Concept & Development : Baudouin d'Aumeries
Co-Development & Prog : Marc-Olivier Méhu
Technical & hardware support : Manuel Goepfert

Contact : metmap@orbifly.com




SOURCES & CREDITS :

   NOAA